Rechercher aéroport 
image banner adimage banner adimage banner ad
image banner ad

P34 - Mifflintown

Situé à Mifflintown, United States

ICAO - P34, IATA -

Données fournies par Airmate  

Information générale

Coordonnées: N40°35'56" W77°24'20"
Élévation : 545 feet MSL.
Variation magnétique : -11° East
Voir autres Aéroports à Pennsylvania

Données opérationnelles

Special qualification required
Heure actuelle UTC:
Heure actuelle locale:
Météo à : KRVL - Mifflin County ( 21 km )
METAR: KRVL 150715Z AUTO 00000KT 3/4SM BR BKN001 13/13 A2983 RMK AO2
Voir NOTAMs / SUP AIP / TFR affectant cet aéroport [VIEW]
Fréquences de communication: [VIEW]

Pistes:

Identifiant RWYQFULongueur (ft)Largeur (ft)SurfaceLDA (ft)
08262750ASPH
26262750ASPH

Coordonnées de l'aéroport

Adresse: Mifflintown United States

Vue satellite de P34